Saint John's, Antigua and Barbuda
Current Conditions -  °F | °C
As of 7:00 AM on Monday 20 Oct 2014 (Local Time) from TAPA Reporting Station
Scattered Clouds Scattered Clouds  
Wind Chill: 81°   Ceiling: Unl
Heat Index: 85°   Visibility: 6mi
Dew Point: 73°   Wind: 5mph
Humidity: 79%   Direction: 60°ENE
Pressure: 29.94"   Gusts: NA
Location:  17.11°N, 61.85°W
Report Text: TAPA 201100Z 06004KT 9999 SCT016 27/23 Q1014 NOSIG
Loading
Personal Weather Stations






























Interactive Weather Map
Tropical Storm Tracking
New forecast layout! Learn more

10-Day Weather Forecast

Advertisements
Track Severe Weather on mobile